Time;durP1;ratioP1;P1;durP2;ratioP2;P2;SDS_P1;SDS_P2;PMS_P1;PMS_P2;Temp;Humidity;BMP_temperature;BMP_pressure;BME280_temperature;BME280_humidity;BME280_pressure;Samples;Min_cycle;Max_cycle;Signal;HPM_P1;HPM_P2
2021/12/13 00:00:15;;;;;;;1.60;1.00;;;;;;;16.69;61.72;99536.44;3125943;28;20083;-47
2021/12/13 00:01:51;;;;;;;1.25;0.88;;;;;;;16.68;61.75;99534.75;3127527;28;20048;-45
2021/12/13 00:03:31;;;;;;;2.03;1.27;;;;;;;16.66;61.84;99521.53;3126351;28;20096;-45
2021/12/13 00:05:10;;;;;;;1.83;1.02;;;;;;;16.65;61.80;99519.84;3126440;28;20056;-45
2021/12/13 00:06:47;;;;;;;2.20;1.23;;;;;;;16.64;61.77;99512.00;3126432;28;20454;-46
2021/12/13 00:08:26;;;;;;;1.77;0.90;;;;;;;16.65;61.79;99519.84;3120453;28;20132;-45
2021/12/13 00:10:04;;;;;;;2.08;1.27;;;;;;;16.65;61.86;99519.03;3124404;28;20131;-46
2021/12/13 00:11:41;;;;;;;1.60;1.10;;;;;;;16.65;61.75;99524.38;3123470;28;20049;-45
2021/12/13 00:13:16;;;;;;;1.52;1.00;;;;;;;16.63;61.87;99521.88;3123806;28;20180;-46
2021/12/13 00:14:51;;;;;;;1.77;0.98;;;;;;;16.61;61.84;99518.53;3124966;28;20267;-45
2021/12/13 00:16:25;;;;;;;2.72;1.95;;;;;;;16.60;61.76;99527.56;3124418;28;20140;-44
2021/12/13 00:17:57;;;;;;;1.65;1.13;;;;;;;16.60;61.85;99524.03;3125167;28;20147;-45
2021/12/13 00:19:36;;;;;;;3.75;1.00;;;;;;;16.58;61.77;99518.88;3123451;28;20068;-45
2021/12/13 00:21:13;;;;;;;1.00;1.00;;;;;;;16.58;61.93;99521.56;3123976;28;20045;-47
2021/12/13 00:22:48;;;;;;;3.80;0.95;;;;;;;16.57;61.68;99517.19;3124606;28;20076;-44
2021/12/13 00:24:23;;;;;;;1.58;1.23;;;;;;;16.56;62.06;99515.53;3117455;28;20053;-46
2021/12/13 00:25:58;;;;;;;1.75;0.95;;;;;;;16.54;61.82;99518.34;3125979;28;20124;-44
2021/12/13 00:27:33;;;;;;;2.28;1.00;;;;;;;16.53;61.94;99518.53;3124603;28;20626;-42
2021/12/13 00:29:10;;;;;;;2.13;1.10;;;;;;;16.52;62.02;99522.22;3125565;28;20383;-42
2021/12/13 00:30:50;;;;;;;3.65;2.28;;;;;;;16.51;61.97;99515.19;3123924;28;20506;-42
2021/12/13 00:32:32;;;;;;;2.55;1.23;;;;;;;16.50;61.84;99510.84;3123960;28;20049;-47
2021/12/13 00:34:19;;;;;;;2.40;1.05;;;;;;;16.49;61.95;99522.53;3126828;28;20048;-45
2021/12/13 00:35:58;;;;;;;2.13;1.25;;;;;;;16.46;61.93;99515.69;3125333;28;20076;-43
2021/12/13 00:37:33;;;;;;;2.75;1.30;;;;;;;16.46;61.98;99514.84;3125181;28;20692;-42
2021/12/13 00:39:12;;;;;;;1.20;1.10;;;;;;;16.43;62.06;99520.53;3127329;28;20041;-43
2021/12/13 00:40:48;;;;;;;2.70;1.25;;;;;;;16.41;62.00;99523.41;3124679;28;20056;-42
2021/12/13 00:42:21;;;;;;;2.63;1.27;;;;;;;16.40;62.14;99516.34;3125031;28;20139;-41
2021/12/13 00:44:00;;;;;;;1.67;1.20;;;;;;;16.40;62.04;99516.34;3125819;28;20049;-44
2021/12/13 00:45:35;;;;;;;1.40;0.90;;;;;;;16.39;62.15;99513.88;3124285;28;20137;-42
2021/12/13 00:47:11;;;;;;;1.58;1.08;;;;;;;16.38;62.15;99510.34;3126120;28;20045;-42
2021/12/13 00:48:47;;;;;;;1.17;0.98;;;;;;;16.37;62.23;99507.84;3122664;28;20163;-45
2021/12/13 00:50:23;;;;;;;1.40;1.15;;;;;;;16.36;62.09;99508.84;3123201;28;20156;-43
2021/12/13 00:51:57;;;;;;;1.52;1.30;;;;;;;16.34;62.17;99503.66;3126412;28;20092;-43
2021/12/13 00:53:35;;;;;;;1.60;1.08;;;;;;;16.31;62.17;99512.84;3124861;28;20152;-42
2021/12/13 00:55:12;;;;;;;1.23;0.90;;;;;;;16.30;62.28;99513.84;3125309;28;20076;-41
2021/12/13 00:57:23;;;;;;;0.93;0.77;;;;;;;16.29;62.27;99505.97;3125802;28;20434;-41
2021/12/13 00:58:57;;;;;;;2.33;1.33;;;;;;;16.29;62.26;99496.09;3102425;28;20051;-43
2021/12/13 01:00:35;;;;;;;2.30;1.30;;;;;;;16.27;62.36;99505.34;3124311;28;20115;-40
2021/12/13 01:02:09;;;;;;;1.75;1.13;;;;;;;16.26;62.39;99503.63;3126754;28;20135;-42
2021/12/13 01:03:46;;;;;;;1.50;1.20;;;;;;;16.24;62.34;99506.50;3126969;28;20586;-45
2021/12/13 01:05:23;;;;;;;2.25;0.98;;;;;;;16.23;62.45;99499.47;3124799;28;20048;-42
2021/12/13 01:07:36;;;;;;;1.38;0.93;;;;;;;16.21;62.38;99495.28;3124361;28;20087;-42
2021/12/13 01:09:51;;;;;;;1.00;0.88;;;;;;;16.20;62.41;99498.97;3125210;28;20060;-42
2021/12/13 01:11:37;;;;;;;1.98;1.23;;;;;;;16.19;62.37;99498.13;3118187;28;20128;-41
2021/12/13 01:13:14;;;;;;;1.35;1.02;;;;;;;16.18;62.50;99500.97;3123750;28;20053;-41
2021/12/13 01:14:57;;;;;;;1.33;1.23;;;;;;;16.17;62.62;99505.47;3123536;28;20048;-41
2021/12/13 01:16:50;;;;;;;1.50;0.90;;;;;;;16.15;62.58;99502.13;3125201;28;20076;-42
2021/12/13 01:18:29;;;;;;;0.82;0.70;;;;;;;16.13;62.62;99509.50;3123836;28;20044;-41
2021/12/13 01:20:07;;;;;;;1.13;1.05;;;;;;;16.11;62.65;99506.16;3124112;28;20438;-44
2021/12/13 01:21:54;;;;;;;1.13;0.95;;;;;;;16.11;62.76;99511.50;3114355;28;20796;-42
2021/12/13 01:23:40;;;;;;;1.77;1.33;;;;;;;16.08;62.95;99515.34;3124058;28;20095;-44
2021/12/13 01:25:25;;;;;;;1.20;0.98;;;;;;;16.07;62.78;99526.22;3120992;28;20056;-46
2021/12/13 01:26:57;;;;;;;1.85;1.30;;;;;;;16.06;62.80;99530.72;3126345;28;20159;-44
2021/12/13 01:28:32;;;;;;;1.50;1.13;;;;;;;16.05;62.84;99525.56;3124000;28;20076;-43
2021/12/13 01:30:06;;;;;;;1.23;1.10;;;;;;;16.03;62.94;99533.72;3125521;28;20705;-43
2021/12/13 01:31:40;;;;;;;1.08;0.85;;;;;;;16.02;63.08;99532.06;3112921;28;20041;-44
2021/12/13 01:33:15;;;;;;;0.82;0.80;;;;;;;16.01;63.04;99526.88;3111524;28;20081;-45
2021/12/13 01:34:46;;;;;;;1.60;1.50;;;;;;;16.01;63.22;99524.19;3118523;28;20049;-43
2021/12/13 01:36:25;;;;;;;8.02;1.77;;;;;;;15.98;63.13;99519.19;3125547;28;20040;-41
2021/12/13 01:38:03;;;;;;;1.52;0.88;;;;;;;15.98;63.07;99521.84;3127051;28;20106;-45
2021/12/13 01:39:38;;;;;;;1.27;1.00;;;;;;;15.96;63.10;99523.84;3125976;28;20060;-44
2021/12/13 01:41:14;;;;;;;2.05;1.00;;;;;;;15.94;63.23;99523.19;3121891;28;20140;-42
2021/12/13 01:42:54;;;;;;;1.85;1.20;;;;;;;15.94;63.17;99528.56;3123661;28;20072;-44
2021/12/13 01:44:28;;;;;;;1.00;0.90;;;;;;;15.92;63.25;99530.53;3123308;28;20072;-45
2021/12/13 01:46:02;;;;;;;2.78;1.80;;;;;;;15.91;63.36;99531.53;3109681;28;20065;-43
2021/12/13 01:47:39;;;;;;;0.90;0.80;;;;;;;15.89;63.18;99522.84;3111303;28;20654;-46
2021/12/13 01:49:12;;;;;;;1.13;0.90;;;;;;;15.88;63.29;99524.69;3107023;28;20523;-43
2021/12/13 01:50:49;;;;;;;1.63;0.82;;;;;;;15.86;63.36;99524.00;3112415;28;20103;-43
2021/12/13 01:52:23;;;;;;;1.50;0.88;;;;;;;15.86;63.33;99519.50;3115072;28;20045;-43
2021/12/13 01:53:58;;;;;;;1.27;0.75;;;;;;;15.84;63.39;99512.63;3120840;28;20068;-46
2021/12/13 01:55:35;;;;;;;0.77;0.77;;;;;;;15.82;63.36;99507.47;3123561;28;20049;-42
2021/12/13 01:57:22;;;;;;;2.20;1.00;;;;;;;15.81;63.32;99500.41;3124471;28;20053;-42
2021/12/13 01:59:03;;;;;;;1.88;1.10;;;;;;;15.80;63.30;99501.44;3121538;28;20045;-46
2021/12/13 02:01:09;;;;;;;0.88;0.70;;;;;;;15.78;63.64;99497.25;3121466;28;20083;-43
2021/12/13 02:02:40;;;;;;;1.55;1.38;;;;;;;15.77;63.80;99504.44;3123415;28;20055;-44
2021/12/13 02:04:15;;;;;;;0.82;0.80;;;;;;;15.77;63.90;99496.41;3124718;28;20086;-45
2021/12/13 02:05:49;;;;;;;1.15;0.63;;;;;;;15.78;63.79;99497.25;3124975;28;20064;-45
2021/12/13 02:07:25;;;;;;;0.90;0.82;;;;;;;15.78;63.66;99502.59;3124306;28;20064;-42
2021/12/13 02:08:59;;;;;;;1.67;0.80;;;;;;;15.77;63.69;99501.75;3124876;28;20037;-45
2021/12/13 02:10:36;;;;;;;1.50;1.40;;;;;;;15.78;63.71;99502.59;3126546;28;20068;-44
2021/12/13 02:12:12;;;;;;;1.30;1.00;;;;;;;15.77;63.79;99517.81;3126836;28;20113;-54
2021/12/13 02:14:04;;;;;;;5.15;1.08;;;;;;;15.77;63.76;99517.81;3124850;28;20045;-45
2021/12/13 02:17:32;;;;;;;1.30;0.98;;;;;;;15.75;63.89;99519.81;3119980;28;20049;-44
2021/12/13 02:19:05;;;;;;;0.90;0.90;;;;;;;15.74;63.67;99512.78;3123550;28;20167;-43
2021/12/13 02:20:40;;;;;;;0.88;0.80;;;;;;;15.74;63.91;99515.47;3121443;28;20148;-44
2021/12/13 02:22:38;;;;;;;0.80;0.73;;;;;;;15.73;63.68;99512.94;3120800;28;20041;-42
2021/12/13 02:24:12;;;;;;;1.75;1.10;;;;;;;15.72;63.91;99506.75;3122401;28;20141;-43
2021/12/13 02:25:48;;;;;;;1.00;0.82;;;;;;;15.70;63.70;99506.06;3122618;28;20078;-43
2021/12/13 02:27:23;;;;;;;1.15;1.05;;;;;;;15.71;63.78;99504.22;3121544;28;20194;-43
2021/12/13 02:29:04;;;;;;;2.28;1.35;;;;;;;15.70;63.70;99492.72;3124041;28;21219;-42
2021/12/13 02:30:41;;;;;;;2.03;1.02;;;;;;;15.69;63.70;99495.56;3122671;28;20103;-45
2021/12/13 02:32:12;;;;;;;1.23;1.05;;;;;;;15.69;63.80;99496.41;3124191;28;20136;-43
2021/12/13 02:33:50;;;;;;;1.08;0.65;;;;;;;15.69;63.67;99500.91;3125053;28;20530;-45
2021/12/13 02:35:24;;;;;;;1.13;0.60;;;;;;;15.67;63.66;99501.03;3122541;28;20049;-47
2021/12/13 02:36:56;;;;;;;1.25;1.08;;;;;;;15.65;63.85;99508.38;3125185;28;20060;-44
2021/12/13 02:38:30;;;;;;;2.20;1.10;;;;;;;15.65;63.87;99500.34;3123862;28;20731;-44
2021/12/13 02:40:03;;;;;;;1.40;0.90;;;;;;;15.64;63.86;99499.50;3124396;28;20625;-42
2021/12/13 02:41:37;;;;;;;2.15;1.10;;;;;;;15.63;63.83;99505.03;3123289;28;20553;-45
2021/12/13 02:43:13;;;;;;;2.05;0.80;;;;;;;15.62;63.90;99511.38;3122202;28;20052;-45
2021/12/13 02:44:47;;;;;;;1.15;0.88;;;;;;;15.61;63.93;99504.34;3124395;28;20055;-44
2021/12/13 02:46:20;;;;;;;1.90;1.17;;;;;;;15.60;63.83;99513.38;3123282;28;20094;-44
2021/12/13 02:48:02;;;;;;;2.13;0.90;;;;;;;15.60;63.87;99516.03;3123728;28;20049;-44
2021/12/13 02:49:33;;;;;;;3.13;1.00;;;;;;;15.59;63.89;99517.03;3123001;28;20187;-42
2021/12/13 02:51:10;;;;;;;0.60;0.55;;;;;;;15.59;63.89;99514.38;3124832;28;20127;-44
2021/12/13 02:52:42;;;;;;;0.73;0.73;;;;;;;15.58;63.93;99513.53;3120609;28;20131;-45
2021/12/13 02:54:19;;;;;;;2.90;1.05;;;;;;;15.56;64.25;99518.22;3122726;28;20049;-41
2021/12/13 02:55:51;;;;;;;1.35;1.05;;;;;;;15.57;64.04;99524.38;3122512;28;20705;-42
2021/12/13 02:57:28;;;;;;;1.63;0.90;;;;;;;15.55;64.08;99515.72;3123083;28;20102;-43
2021/12/13 02:59:02;;;;;;;1.35;0.80;;;;;;;15.54;64.07;99514.03;3124739;28;20048;-45
2021/12/13 03:00:38;;;;;;;1.95;1.17;;;;;;;15.53;64.26;99509.69;3120977;28;21196;-45
2021/12/13 03:02:16;;;;;;;2.65;0.70;;;;;;;15.52;64.11;99516.88;3120232;28;20425;-41
2021/12/13 03:03:51;;;;;;;2.00;1.30;;;;;;;15.49;64.23;99519.88;3123179;28;20136;-44
2021/12/13 03:05:29;;;;;;;1.77;0.95;;;;;;;15.51;63.90;99522.38;3119808;28;20041;-44
2021/12/13 03:07:06;;;;;;;0.55;0.55;;;;;;;15.49;64.03;99527.03;3124689;28;20048;-41
2021/12/13 03:08:41;;;;;;;0.95;0.73;;;;;;;15.48;64.04;99522.69;3124002;28;20044;-41
2021/12/13 03:10:18;;;;;;;1.30;1.17;;;;;;;15.47;64.06;99529.03;3121660;28;20067;-47
2021/12/13 03:11:51;;;;;;;1.15;0.73;;;;;;;15.44;63.98;99524.03;3124449;28;20059;-41
2021/12/13 03:13:24;;;;;;;2.22;0.85;;;;;;;15.45;64.06;99525.69;3120498;28;20048;-41
2021/12/13 03:14:59;;;;;;;1.27;0.90;;;;;;;15.42;63.89;99526.84;3118992;28;20045;-41
2021/12/13 03:16:38;;;;;;;3.22;0.95;;;;;;;15.40;64.21;99527.00;3119744;28;20049;-42
2021/12/13 03:18:16;;;;;;;2.45;0.90;;;;;;;15.40;64.17;99521.66;3121082;28;20128;-44
2021/12/13 03:20:06;;;;;;;1.30;1.10;;;;;;;15.41;64.13;99520.66;3122862;28;20106;-41
2021/12/13 03:22:22;;;;;;;0.60;0.60;;;;;;;15.41;64.11;99514.50;3114551;28;20074;-41
2021/12/13 03:24:09;;;;;;;1.25;1.15;;;;;;;15.43;64.18;99509.78;3122517;28;20037;-41
2021/12/13 03:26:04;;;;;;;0.93;0.80;;;;;;;15.43;64.11;99504.44;3121733;28;20052;-41
2021/12/13 03:27:57;;;;;;;1.65;1.00;;;;;;;15.44;63.95;99502.63;3120545;28;20065;-43
2021/12/13 03:29:42;;;;;;;2.47;1.15;;;;;;;15.45;64.13;99515.00;3120958;28;21411;-43
2021/12/13 03:31:22;;;;;;;0.77;0.60;;;;;;;15.45;64.05;99513.16;3120409;28;20072;-42
2021/12/13 03:32:59;;;;;;;1.33;1.02;;;;;;;15.44;64.15;99519.50;3119655;28;20045;-43
2021/12/13 03:34:35;;;;;;;1.83;0.95;;;;;;;15.46;64.16;99516.66;3118275;28;20083;-45
2021/12/13 03:36:08;;;;;;;0.77;0.75;;;;;;;15.42;64.01;99511.63;3122821;28;20069;-42
2021/12/13 03:37:42;;;;;;;2.13;0.63;;;;;;;15.44;64.17;99510.66;3121854;28;20135;-44
2021/12/13 03:39:17;;;;;;;1.35;1.00;;;;;;;15.45;64.11;99523.00;3120620;28;20167;-42
2021/12/13 03:40:50;;;;;;;1.30;0.82;;;;;;;15.42;63.97;99519.66;3123025;28;20060;-42
2021/12/13 03:42:26;;;;;;;1.40;0.75;;;;;;;15.42;64.10;99519.66;3121389;28;20107;-43
2021/12/13 03:44:02;;;;;;;1.45;0.93;;;;;;;15.43;63.99;99528.50;3120768;28;20594;-44
2021/12/13 03:45:39;;;;;;;1.48;0.95;;;;;;;15.41;64.12;99526.00;3116993;28;20418;-43
2021/12/13 03:47:15;;;;;;;0.68;0.52;;;;;;;15.42;64.12;99519.66;3121483;28;20148;-43
2021/12/13 03:48:49;;;;;;;0.93;0.68;;;;;;;15.40;64.05;99516.31;3122236;28;20402;-45
2021/12/13 03:50:23;;;;;;;2.00;0.90;;;;;;;15.40;64.10;99518.97;3120345;28;20718;-41
2021/12/13 03:51:59;;;;;;;1.27;0.73;;;;;;;15.40;64.16;99508.28;3123939;28;20136;-44
2021/12/13 03:53:33;;;;;;;0.57;0.57;;;;;;;15.40;63.97;99515.47;3121872;28;20575;-44
2021/12/13 03:55:06;;;;;;;0.85;0.70;;;;;;;15.39;64.04;99519.16;3121590;28;20045;-44
2021/12/13 03:56:43;;;;;;;1.38;0.90;;;;;;;15.39;63.96;99521.81;3123114;28;20138;-46
2021/12/13 03:58:18;;;;;;;0.73;0.68;;;;;;;15.38;64.14;99523.66;3120418;28;20152;-44
2021/12/13 03:59:51;;;;;;;1.00;0.90;;;;;;;15.37;64.11;99513.94;3125021;28;20115;-41
2021/12/13 04:01:26;;;;;;;1.33;0.70;;;;;;;15.36;64.21;99511.47;3121350;28;20037;-41
2021/12/13 04:03:01;;;;;;;0.95;0.80;;;;;;;15.36;64.04;99520.31;3122016;28;20128;-45
2021/12/13 04:04:36;;;;;;;1.60;0.80;;;;;;;15.36;64.21;99522.97;3121153;28;20171;-40
2021/12/13 04:06:08;;;;;;;1.35;0.70;;;;;;;15.35;64.28;99526.66;3125166;28;20707;-41
2021/12/13 04:07:43;;;;;;;1.20;0.88;;;;;;;15.34;64.24;99524.13;3110904;28;20033;-42
2021/12/13 04:09:16;;;;;;;1.15;0.88;;;;;;;15.34;64.25;99529.50;3111795;28;20127;-41
2021/12/13 04:10:53;;;;;;;1.63;0.73;;;;;;;15.33;64.19;99527.81;3112245;28;20148;-44
2021/12/13 04:12:34;;;;;;;1.02;0.80;;;;;;;15.31;64.29;99533.31;3113955;28;20123;-45
2021/12/13 04:14:11;;;;;;;0.88;0.77;;;;;;;15.29;64.30;99532.63;3121272;28;20049;-44
2021/12/13 04:15:58;;;;;;;4.97;0.70;;;;;;;15.30;64.15;99531.66;3124557;28;20064;-47
2021/12/13 04:17:43;;;;;;;0.60;0.60;;;;;;;15.30;64.14;99537.00;3124716;28;20110;-43
2021/12/13 04:19:20;;;;;;;0.93;0.68;;;;;;;15.28;64.33;99530.97;3124591;28;20056;-44
2021/12/13 04:20:58;;;;;;;2.40;1.42;;;;;;;15.30;64.23;99537.00;3123891;28;20045;-51
2021/12/13 04:22:34;;;;;;;1.20;0.55;;;;;;;15.28;64.47;99536.31;3122849;28;20103;-52
2021/12/13 04:24:10;;;;;;;0.60;0.60;;;;;;;15.28;64.25;99536.31;3124091;28;20095;-50
2021/12/13 04:25:45;;;;;;;0.95;0.80;;;;;;;15.26;64.42;99538.28;3121204;28;20045;-52
2021/12/13 04:27:21;;;;;;;1.10;0.73;;;;;;;15.26;64.22;99532.13;3125317;28;20052;-51
2021/12/13 04:28:58;;;;;;;0.98;0.60;;;;;;;15.25;64.34;99541.97;3126522;28;20045;-51
2021/12/13 04:30:35;;;;;;;0.88;0.68;;;;;;;15.25;64.31;99547.31;3122306;28;20057;-49
2021/12/13 04:32:14;;;;;;;1.08;0.98;;;;;;;15.25;64.14;99539.31;3124361;28;20045;-48
2021/12/13 04:33:50;;;;;;;0.93;0.85;;;;;;;15.23;64.08;99535.94;3123019;28;20068;-43
2021/12/13 04:35:25;;;;;;;1.02;0.82;;;;;;;15.23;64.09;99527.09;3119944;28;20045;-47
2021/12/13 04:37:00;;;;;;;1.02;0.93;;;;;;;15.22;64.30;99520.09;3122426;28;20045;-53
2021/12/13 04:38:40;;;;;;;2.05;0.75;;;;;;;15.22;64.11;99517.41;3124140;28;20202;-47
2021/12/13 04:40:15;;;;;;;1.10;0.85;;;;;;;15.20;64.18;99517.56;3125296;28;20151;-52
2021/12/13 04:41:50;;;;;;;1.10;0.95;;;;;;;15.19;64.12;99521.25;3126196;28;20678;-49
2021/12/13 04:43:22;;;;;;;1.20;0.80;;;;;;;15.17;64.20;99518.72;3123726;28;20083;-51
2021/12/13 04:44:58;;;;;;;1.40;0.75;;;;;;;15.17;64.17;99524.06;3124450;28;20052;-51
2021/12/13 04:46:33;;;;;;;0.82;0.82;;;;;;;15.16;64.28;99521.56;3123860;28;20559;-52
2021/12/13 04:48:08;;;;;;;1.45;0.80;;;;;;;15.16;64.13;99519.72;3124909;28;21167;-44
2021/12/13 04:49:46;;;;;;;3.40;0.80;;;;;;;15.14;64.20;99523.56;3123940;28;20061;-52
2021/12/13 04:51:20;;;;;;;1.17;0.82;;;;;;;15.13;64.21;99527.22;3119852;28;20144;-51
2021/12/13 04:52:54;;;;;;;1.60;0.75;;;;;;;15.13;64.29;99527.22;3124165;28;20056;-51
2021/12/13 04:54:28;;;;;;;1.17;1.08;;;;;;;15.13;64.36;99519.22;3123264;28;20050;-48
2021/12/13 04:56:03;;;;;;;1.17;0.70;;;;;;;15.13;64.34;99520.06;3124566;28;20114;-45
2021/12/13 04:57:36;;;;;;;1.98;0.90;;;;;;;15.15;64.53;99520.69;3125418;28;20702;-44
2021/12/13 04:59:09;;;;;;;1.02;0.65;;;;;;;15.19;64.38;99532.75;3124874;28;20052;-46
2021/12/13 05:00:48;;;;;;;2.05;1.30;;;;;;;15.23;64.39;99532.44;3118148;28;20136;-44
2021/12/13 05:02:20;;;;;;;1.02;0.63;;;;;;;15.27;64.08;99528.47;3119750;28;20131;-44
2021/12/13 05:03:55;;;;;;;1.08;0.82;;;;;;;15.29;64.21;99527.28;3126080;28;20522;-44
2021/12/13 05:05:29;;;;;;;0.90;0.80;;;;;;;15.30;64.28;99528.97;3123121;28;20129;-45
2021/12/13 05:07:04;;;;;;;1.55;1.23;;;;;;;15.34;63.96;99529.50;3125369;28;20136;-44
2021/12/13 05:08:39;;;;;;;1.20;0.77;;;;;;;15.37;64.11;99524.66;3123359;28;20132;-46
2021/12/13 05:10:13;;;;;;;1.73;1.10;;;;;;;15.40;64.03;99524.31;3125208;28;20072;-44
2021/12/13 05:11:48;;;;;;;1.60;0.80;;;;;;;15.48;63.81;99536.06;3121258;28;20094;-46
2021/12/13 05:13:23;;;;;;;0.85;0.63;;;;;;;15.56;63.83;99522.72;3124517;28;20041;-45
2021/12/13 05:14:58;;;;;;;1.13;0.80;;;;;;;15.63;63.71;99526.44;3124540;28;20072;-44
2021/12/13 05:16:44;;;;;;;1.45;1.00;;;;;;;15.69;63.44;99525.81;3126567;28;20150;-45
2021/12/13 05:18:20;;;;;;;0.93;0.70;;;;;;;15.77;63.45;99528.50;3124997;28;20049;-45
2021/12/13 05:19:55;;;;;;;0.98;0.70;;;;;;;15.84;63.32;99529.50;3124055;28;20056;-45
2021/12/13 05:21:36;;;;;;;0.88;0.75;;;;;;;15.90;63.33;99527.19;3125234;28;20073;-44
2021/12/13 05:23:12;;;;;;;0.75;0.70;;;;;;;15.97;63.16;99526.38;3126725;28;20131;-46
2021/12/13 05:24:59;;;;;;;1.65;1.00;;;;;;;16.03;63.13;99517.69;3123291;28;20053;-46
2021/12/13 05:26:34;;;;;;;0.75;0.45;;;;;;;16.13;62.96;99524.72;3125316;28;20140;-45
2021/12/13 05:28:10;;;;;;;0.77;0.65;;;;;;;16.20;63.20;99534.59;3124233;28;20136;-45
2021/12/13 05:29:45;;;;;;;0.70;0.65;;;;;;;16.25;62.95;99529.59;3121129;28;20064;-45
2021/12/13 05:31:21;;;;;;;1.17;0.98;;;;;;;16.33;62.76;99535.94;3123351;28;20130;-44
2021/12/13 05:32:59;;;;;;;1.20;0.57;;;;;;;16.38;62.80;99531.78;3124900;28;20053;-45
2021/12/13 05:34:35;;;;;;;1.55;0.93;;;;;;;16.43;62.61;99531.25;3124330;28;20068;-47
2021/12/13 05:36:11;;;;;;;0.95;0.80;;;;;;;16.48;62.55;99534.25;3124917;28;20123;-45
2021/12/13 05:37:47;;;;;;;0.43;0.40;;;;;;;16.53;62.63;99534.59;3124295;28;20469;-44
2021/12/13 05:39:19;;;;;;;1.00;0.70;;;;;;;16.57;62.48;99527.06;3123474;28;20758;-44
2021/12/13 05:40:51;;;;;;;1.25;0.82;;;;;;;16.59;62.62;99530.41;3123508;28;20053;-46
2021/12/13 05:42:35;;;;;;;1.05;0.88;;;;;;;16.69;63.61;99534.59;3124192;28;20653;-47
2021/12/13 05:44:10;;;;;;;6.13;0.70;;;;;;;16.71;63.24;99543.28;3126191;28;20076;-46
2021/12/13 05:45:45;;;;;;;1.33;0.70;;;;;;;16.74;63.36;99534.94;3123871;28;20121;-47
2021/12/13 05:47:21;;;;;;;4.30;1.08;;;;;;;16.71;60.83;99542.44;3122829;28;20041;-46
2021/12/13 05:49:00;;;;;;;4.07;1.33;;;;;;;16.75;62.63;99541.94;3126861;28;20106;-45
2021/12/13 05:50:36;;;;;;;3.30;1.15;;;;;;;16.83;62.41;99532.28;3123937;28;20045;-45
2021/12/13 05:52:12;;;;;;;5.40;1.08;;;;;;;16.87;62.14;99536.28;3127114;28;20622;-47
2021/12/13 05:53:47;;;;;;;2.17;0.80;;;;;;;16.91;62.00;99538.44;3121386;28;20076;-47
2021/12/13 05:55:19;;;;;;;2.00;1.08;;;;;;;16.94;62.05;99535.44;3124250;28;20761;-46
2021/12/13 05:56:54;;;;;;;0.95;0.55;;;;;;;16.99;61.92;99540.25;3124185;28;20156;-45
2021/12/13 05:58:43;;;;;;;1.67;1.05;;;;;;;17.04;61.93;99537.06;3122101;28;20091;-46
2021/12/13 06:00:21;;;;;;;2.88;1.20;;;;;;;17.07;61.80;99537.56;3123355;28;20411;-46
2021/12/13 06:02:11;;;;;;;2.38;0.95;;;;;;;17.12;61.86;99535.19;3118607;28;20140;-46
2021/12/13 06:03:50;;;;;;;1.00;0.88;;;;;;;17.15;61.73;99537.53;3119912;28;20085;-46
2021/12/13 06:05:27;;;;;;;4.22;0.73;;;;;;;17.18;61.71;99531.81;3108928;28;20049;-46
2021/12/13 06:07:01;;;;;;;4.75;1.08;;;;;;;17.24;61.75;99541.03;3111653;28;20119;-48
2021/12/13 06:08:39;;;;;;;4.40;0.93;;;;;;;17.27;61.61;99553.25;3110837;28;20465;-46
2021/12/13 06:10:16;;;;;;;2.50;0.70;;;;;;;17.29;61.63;99560.13;3112369;28;20457;-45
2021/12/13 06:12:03;;;;;;;2.40;1.10;;;;;;;17.29;61.59;99559.28;3111058;28;20477;-48
2021/12/13 06:13:56;;;;;;;1.05;0.73;;;;;;;17.33;61.57;99557.94;3109705;28;20064;-46
2021/12/13 06:15:31;;;;;;;2.05;0.73;;;;;;;17.32;61.59;99554.41;3110163;28;20076;-46
2021/12/13 06:17:09;;;;;;;2.83;1.13;;;;;;;17.34;61.51;99548.88;3114090;28;20140;-46
2021/12/13 06:19:00;;;;;;;2.00;1.80;;;;;;;17.36;61.46;99549.56;3112497;28;20450;-46
2021/12/13 06:20:39;;;;;;;1.08;0.80;;;;;;;17.36;61.29;99549.56;3107958;28;20053;-45
2021/12/13 06:22:14;;;;;;;1.58;0.52;;;;;;;17.37;61.69;99551.22;3112003;28;20419;-50
2021/12/13 06:23:48;;;;;;;1.05;0.80;;;;;;;17.38;61.61;99548.38;3111437;28;20698;-46
2021/12/13 06:25:24;;;;;;;6.20;1.27;;;;;;;17.40;61.68;99550.88;3110962;28;20046;-46
2021/12/13 06:27:06;;;;;;;1.05;0.77;;;;;;;17.40;61.77;99551.69;3113426;28;20056;-46
2021/12/13 06:28:41;;;;;;;6.85;1.70;;;;;;;17.41;61.83;99557.88;3111039;28;20041;-46
2021/12/13 06:30:20;;;;;;;5.20;0.85;;;;;;;17.42;62.22;99565.78;3111600;28;20462;-51
2021/12/13 06:31:52;;;;;;;1.48;0.70;;;;;;;17.42;62.46;99560.41;3113455;28;20107;-49
2021/12/13 06:33:25;;;;;;;3.17;0.77;;;;;;;17.43;62.52;99555.88;3113106;28;20144;-48
2021/12/13 06:34:59;;;;;;;2.65;1.77;;;;;;;17.43;62.58;99561.25;3112939;28;20069;-47
2021/12/13 06:36:34;;;;;;;0.70;0.70;;;;;;;17.43;62.63;99561.25;3114738;28;20064;-46
2021/12/13 06:38:36;;;;;;;3.40;1.20;;;;;;;17.43;62.64;99563.91;3115159;28;20041;-46
2021/12/13 06:40:15;;;;;;;0.90;0.90;;;;;;;17.41;62.85;99563.25;3111607;28;21003;-47
2021/12/13 06:41:49;;;;;;;2.72;0.82;;;;;;;17.40;62.74;99562.41;3112448;28;20065;-46
2021/12/13 06:43:27;;;;;;;0.95;0.52;;;;;;;17.40;62.71;99553.53;3111849;28;20049;-48
2021/12/13 06:44:59;;;;;;;3.65;0.88;;;;;;;17.39;62.58;99560.75;3105668;28;20056;-45
2021/12/13 06:46:42;;;;;;;1.23;0.70;;;;;;;17.38;62.64;99563.59;3105851;28;20192;-45
2021/12/13 06:48:14;;;;;;;0.75;0.63;;;;;;;17.39;62.58;99570.66;3107918;28;20072;-47
2021/12/13 06:49:48;;;;;;;4.13;0.90;;;;;;;17.40;62.53;99566.94;3108005;28;20045;-45
2021/12/13 06:51:36;;;;;;;4.10;0.90;;;;;;;17.41;62.55;99571.28;3119498;28;20041;-45
2021/12/13 06:53:16;;;;;;;1.70;1.00;;;;;;;17.41;62.28;99563.25;3121421;28;21173;-46
2021/12/13 06:54:54;;;;;;;1.35;0.95;;;;;;;17.43;62.10;99562.06;3121265;28;20137;-45
2021/12/13 06:56:29;;;;;;;2.60;1.08;;;;;;;17.45;62.15;99564.59;3120644;28;20497;-46
2021/12/13 06:58:03;;;;;;;2.38;0.85;;;;;;;17.48;62.46;99566.94;3120018;28;20079;-47
2021/12/13 06:59:38;;;;;;;1.30;0.70;;;;;;;17.49;62.20;99568.59;3120535;28;20139;-45
2021/12/13 07:01:11;;;;;;;2.33;0.60;;;;;;;17.51;61.96;99573.78;3120104;28;20114;-45
2021/12/13 07:02:46;;;;;;;1.38;0.90;;;;;;;17.52;62.33;99567.41;3117923;28;20071;-46
2021/12/13 07:04:18;;;;;;;4.57;1.35;;;;;;;17.53;62.27;99572.59;3115994;28;20151;-46
2021/12/13 07:05:51;;;;;;;;;;;;;;;17.52;62.11;99564.72;3119521;28;20131;-47
2021/12/13 07:07:25;;;;;;;1.55;1.02;;;;;;;17.54;62.47;99566.22;3119828;28;19932;-46
2021/12/13 07:09:13;;;;;;;5.07;1.90;;;;;;;17.53;62.53;99561.88;3116015;28;20049;-47
2021/12/13 07:10:57;;;;;;;0.50;0.50;;;;;;;17.54;62.34;99560.03;3110893;28;20048;-45
2021/12/13 07:12:31;;;;;;;0.73;0.63;;;;;;;17.55;62.58;99565.22;3119954;28;20076;-45
2021/12/13 07:14:06;;;;;;;1.15;0.70;;;;;;;17.55;62.38;99569.72;3123391;28;20414;-45
2021/12/13 07:15:43;;;;;;;1.55;0.88;;;;;;;17.55;62.49;99567.91;3121382;28;20238;-45
2021/12/13 07:17:17;;;;;;;0.55;0.38;;;;;;;17.57;62.29;99573.09;3120685;28;20072;-47
2021/12/13 07:18:56;;;;;;;4.03;1.02;;;;;;;17.57;62.28;99567.72;3122673;28;20061;-46
2021/12/13 07:20:37;;;;;;;1.10;0.60;;;;;;;17.58;62.36;99566.72;3118265;28;20152;-45
2021/12/13 07:22:10;;;;;;;1.15;0.88;;;;;;;17.57;62.56;99565.88;3113456;28;20103;-45
2021/12/13 07:23:57;;;;;;;3.05;0.60;;;;;;;17.59;62.63;99571.06;3120894;28;20082;-47
2021/12/13 07:25:36;;;;;;;0.95;0.70;;;;;;;17.58;62.39;99572.94;3116574;28;20136;-47
2021/12/13 07:27:11;;;;;;;1.58;0.98;;;;;;;17.57;62.54;99571.25;3119871;28;20132;-45
2021/12/13 07:28:44;;;;;;;2.25;0.80;;;;;;;17.59;62.29;99573.75;3108518;28;20614;-46
2021/12/13 07:30:19;;;;;;;0.85;0.85;;;;;;;17.60;62.58;99572.75;3105293;28;20052;-48
2021/12/13 07:32:05;;;;;;;3.20;0.85;;;;;;;17.60;62.43;99570.06;3107842;28;20555;-45
2021/12/13 07:33:41;;;;;;;1.00;0.63;;;;;;;17.60;62.36;99572.75;3106604;28;20580;-47
2021/12/13 07:35:16;;;;;;;0.50;0.50;;;;;;;17.59;62.51;99571.91;3105610;28;20084;-46
2021/12/13 07:36:53;;;;;;;1.58;0.80;;;;;;;17.60;62.53;99567.38;3108088;28;20045;-46
2021/12/13 07:38:26;;;;;;;0.68;0.65;;;;;;;17.59;62.34;99563.84;3104326;28;20620;-46
2021/12/13 07:40:28;;;;;;;0.98;0.65;;;;;;;17.59;62.63;99563.03;3108425;28;20140;-47
2021/12/13 07:42:04;;;;;;;2.72;0.88;;;;;;;17.58;62.29;99564.88;3108819;28;20149;-47